Airfield :
LOGIN :

Register | Disclaimer

   EN    FR    IT 

 










Legend :    VFR   Marginal VFR   IFR   Intensive IFR   Very Intensive IFR
Visi :
Ceiling :
>= 8 km
>= 3000ft
5 to 8 km
1000 to 3000 ft
1500m to 5 km
500 to 1000 ft
800 to 1500m
200 to 500 ft
< 800m
< 200 ft
Symbols :   Thunderstorms  Fog  Heavy snow  Heavy precipitations  Wind > 20 kt
SIGMETs :     Misc.  Thunderstorms  Icing  Turbulence  Mountain Waves  Volcanic Ashes






- Airport Elevation : 821 ft
- IATA code : LYS


LFLL - Lyon St Exupéry / Satolas

CURRENT METAR :
  • 281300Z 14005KT 040V200 CAVOK 10/M02 Q1019 NOSIG

EXPIRED METARs :
  • 281230Z 21003KT 130V250 CAVOK 10/M02 Q1020 NOSIG
  • 281200Z 14003KT 060V190 CAVOK 09/M01 Q1020 NOSIG
  • 281130Z VRB03KT CAVOK 08/M01 Q1021 NOSIG
  • 281100Z 11004KT 070V150 CAVOK 08/M00 Q1021 NOSIG
  • 281030Z VRB03KT CAVOK 07/M00 Q1022 NOSIG

TAF TAF LFLL
Valid from the 28 at 12:00 until the 29 at 18:00 UTC


281100Z 2812/2918 VRB02KT CAVOK
BECMG 2813/2815 13010KT
BECMG 2900/2902 18020G30KT
TEMPO 2905/2916 18030G45KT
TEMPO 2912/2915 RA
BECMG 2916/2918 22010KT SCT040



MET'MAP, your aeronautical weather chart ! - Copyright ORBIFLY December 2007 - Disclaimer

ORBIFLY MET'MAP TEAM :

Programming & Development : Alexandra Zaïnal
Concept & original design : Baudouin d'Aumeries
Assistance for programming : Marc-Olivier Méhu
Technical & hardware support : Manuel Goepfert

Contact : metmap@orbifly.com




SOURCES & CREDITS :

   NOAA